sensor_id;sensor_type;location;lat;lon;timestamp;P1;durP1;ratioP1;P2;durP2;ratioP2
55417;SDS011;41287;47.554;7.844;2023-03-01T00:01:06;1.65;;;1.40;;
55417;SDS011;41287;47.554;7.844;2023-03-01T00:03:33;1.98;;;1.63;;
55417;SDS011;41287;47.554;7.844;2023-03-01T00:06:01;1.95;;;1.50;;
55417;SDS011;41287;47.554;7.844;2023-03-01T00:08:28;2.17;;;1.60;;
55417;SDS011;41287;47.554;7.844;2023-03-01T00:13:29;1.75;;;1.40;;
55417;SDS011;41287;47.554;7.844;2023-03-01T00:15:58;1.95;;;1.30;;
55417;SDS011;41287;47.554;7.844;2023-03-01T00:18:23;2.88;;;1.80;;
55417;SDS011;41287;47.554;7.844;2023-03-01T00:20:52;1.83;;;1.42;;
55417;SDS011;41287;47.554;7.844;2023-03-01T00:23:21;1.80;;;1.40;;
55417;SDS011;41287;47.554;7.844;2023-03-01T00:25:48;1.80;;;1.33;;
55417;SDS011;41287;47.554;7.844;2023-03-01T00:28:13;1.98;;;1.45;;
55417;SDS011;41287;47.554;7.844;2023-03-01T00:30:39;1.80;;;1.50;;
55417;SDS011;41287;47.554;7.844;2023-03-01T00:33:04;1.83;;;1.50;;
55417;SDS011;41287;47.554;7.844;2023-03-01T00:35:31;2.20;;;1.73;;
55417;SDS011;41287;47.554;7.844;2023-03-01T00:37:57;2.00;;;1.50;;
55417;SDS011;41287;47.554;7.844;2023-03-01T00:40:32;1.92;;;1.40;;
55417;SDS011;41287;47.554;7.844;2023-03-01T00:42:58;1.85;;;1.60;;
55417;SDS011;41287;47.554;7.844;2023-03-01T00:45:25;1.45;;;1.30;;
55417;SDS011;41287;47.554;7.844;2023-03-01T00:47:51;1.50;;;1.30;;
55417;SDS011;41287;47.554;7.844;2023-03-01T00:50:17;2.28;;;1.60;;
55417;SDS011;41287;47.554;7.844;2023-03-01T00:52:46;1.70;;;1.55;;
55417;SDS011;41287;47.554;7.844;2023-03-01T00:55:12;1.75;;;1.30;;
55417;SDS011;41287;47.554;7.844;2023-03-01T00:57:37;2.10;;;1.48;;
55417;SDS011;41287;47.554;7.844;2023-03-01T01:00:06;2.63;;;1.67;;
55417;SDS011;41287;47.554;7.844;2023-03-01T01:02:34;2.10;;;1.67;;
55417;SDS011;41287;47.554;7.844;2023-03-01T01:05:00;2.08;;;1.48;;
55417;SDS011;41287;47.554;7.844;2023-03-01T01:07:25;1.75;;;1.50;;
55417;SDS011;41287;47.554;7.844;2023-03-01T01:09:54;2.13;;;1.50;;
55417;SDS011;41287;47.554;7.844;2023-03-01T01:12:19;2.40;;;1.60;;
55417;SDS011;41287;47.554;7.844;2023-03-01T01:14:44;1.05;;;0.95;;
55417;SDS011;41287;47.554;7.844;2023-03-01T01:17:12;1.70;;;1.40;;
55417;SDS011;41287;47.554;7.844;2023-03-01T01:19:37;1.45;;;1.23;;
55417;SDS011;41287;47.554;7.844;2023-03-01T01:22:03;1.75;;;1.50;;
55417;SDS011;41287;47.554;7.844;2023-03-01T01:24:28;1.52;;;1.30;;
55417;SDS011;41287;47.554;7.844;2023-03-01T01:26:54;1.83;;;1.40;;
55417;SDS011;41287;47.554;7.844;2023-03-01T01:29:19;2.13;;;1.65;;
55417;SDS011;41287;47.554;7.844;2023-03-01T01:31:44;1.98;;;1.40;;
55417;SDS011;41287;47.554;7.844;2023-03-01T01:34:14;1.98;;;1.60;;
55417;SDS011;41287;47.554;7.844;2023-03-01T01:36:41;2.03;;;1.30;;
55417;SDS011;41287;47.554;7.844;2023-03-01T01:39:06;1.65;;;1.48;;
55417;SDS011;41287;47.554;7.844;2023-03-01T01:41:32;1.92;;;1.48;;
55417;SDS011;41287;47.554;7.844;2023-03-01T01:44:10;1.90;;;1.42;;
55417;SDS011;41287;47.554;7.844;2023-03-01T01:46:36;1.60;;;1.40;;
55417;SDS011;41287;47.554;7.844;2023-03-01T01:49:04;2.03;;;1.48;;
55417;SDS011;41287;47.554;7.844;2023-03-01T01:51:37;1.90;;;1.30;;
55417;SDS011;41287;47.554;7.844;2023-03-01T01:54:18;1.70;;;1.40;;
55417;SDS011;41287;47.554;7.844;2023-03-01T01:57:00;1.55;;;1.30;;
55417;SDS011;41287;47.554;7.844;2023-03-01T01:59:28;1.45;;;1.30;;
55417;SDS011;41287;47.554;7.844;2023-03-01T02:01:58;1.65;;;1.20;;
55417;SDS011;41287;47.554;7.844;2023-03-01T02:04:25;1.85;;;1.50;;
55417;SDS011;41287;47.554;7.844;2023-03-01T02:06:53;2.00;;;1.40;;
55417;SDS011;41287;47.554;7.844;2023-03-01T02:09:24;1.45;;;1.30;;
55417;SDS011;41287;47.554;7.844;2023-03-01T02:11:50;1.70;;;1.40;;
55417;SDS011;41287;47.554;7.844;2023-03-01T02:14:16;1.95;;;1.42;;
55417;SDS011;41287;47.554;7.844;2023-03-01T02:16:41;1.85;;;1.38;;
55417;SDS011;41287;47.554;7.844;2023-03-01T02:19:08;2.22;;;1.50;;
55417;SDS011;41287;47.554;7.844;2023-03-01T02:24:19;1.75;;;1.42;;
55417;SDS011;41287;47.554;7.844;2023-03-01T02:27:07;2.10;;;1.58;;
55417;SDS011;41287;47.554;7.844;2023-03-01T02:29:33;2.10;;;1.50;;
55417;SDS011;41287;47.554;7.844;2023-03-01T02:32:02;2.25;;;1.60;;
55417;SDS011;41287;47.554;7.844;2023-03-01T02:34:28;1.30;;;1.10;;
55417;SDS011;41287;47.554;7.844;2023-03-01T02:36:57;1.88;;;1.40;;
55417;SDS011;41287;47.554;7.844;2023-03-01T02:39:36;1.80;;;1.38;;
55417;SDS011;41287;47.554;7.844;2023-03-01T02:42:07;2.15;;;1.42;;
55417;SDS011;41287;47.554;7.844;2023-03-01T02:44:36;1.55;;;1.27;;
55417;SDS011;41287;47.554;7.844;2023-03-01T02:47:04;1.45;;;1.33;;
55417;SDS011;41287;47.554;7.844;2023-03-01T02:49:31;1.25;;;1.10;;
55417;SDS011;41287;47.554;7.844;2023-03-01T02:55:01;1.90;;;1.40;;
55417;SDS011;41287;47.554;7.844;2023-03-01T02:57:31;2.08;;;1.50;;
55417;SDS011;41287;47.554;7.844;2023-03-01T02:59:59;1.80;;;1.50;;
55417;SDS011;41287;47.554;7.844;2023-03-01T03:02:32;1.70;;;1.33;;
55417;SDS011;41287;47.554;7.844;2023-03-01T03:05:14;1.48;;;1.30;;
55417;SDS011;41287;47.554;7.844;2023-03-01T03:10:12;1.60;;;1.30;;
55417;SDS011;41287;47.554;7.844;2023-03-01T03:12:53;1.70;;;1.40;;
55417;SDS011;41287;47.554;7.844;2023-03-01T03:15:20;1.77;;;1.38;;
55417;SDS011;41287;47.554;7.844;2023-03-01T03:17:47;1.80;;;1.42;;
55417;SDS011;41287;47.554;7.844;2023-03-01T03:20:14;1.77;;;1.55;;
55417;SDS011;41287;47.554;7.844;2023-03-01T03:22:44;1.52;;;1.30;;
55417;SDS011;41287;47.554;7.844;2023-03-01T03:25:13;1.80;;;1.30;;
55417;SDS011;41287;47.554;7.844;2023-03-01T03:27:39;1.25;;;1.15;;
55417;SDS011;41287;47.554;7.844;2023-03-01T03:30:07;1.77;;;1.42;;
55417;SDS011;41287;47.554;7.844;2023-03-01T03:32:35;2.35;;;1.67;;
55417;SDS011;41287;47.554;7.844;2023-03-01T03:35:02;1.67;;;1.25;;
55417;SDS011;41287;47.554;7.844;2023-03-01T03:37:34;1.93;;;1.30;;
55417;SDS011;41287;47.554;7.844;2023-03-01T03:40:26;1.48;;;1.30;;
55417;SDS011;41287;47.554;7.844;2023-03-01T03:42:53;1.35;;;1.00;;
55417;SDS011;41287;47.554;7.844;2023-03-01T03:45:19;2.05;;;1.50;;
55417;SDS011;41287;47.554;7.844;2023-03-01T03:47:44;1.65;;;1.40;;
55417;SDS011;41287;47.554;7.844;2023-03-01T03:50:12;1.77;;;1.20;;
55417;SDS011;41287;47.554;7.844;2023-03-01T03:52:39;1.50;;;1.40;;
55417;SDS011;41287;47.554;7.844;2023-03-01T03:55:05;1.75;;;1.30;;
55417;SDS011;41287;47.554;7.844;2023-03-01T03:57:34;1.55;;;1.25;;
55417;SDS011;41287;47.554;7.844;2023-03-01T04:00:06;1.50;;;1.20;;
55417;SDS011;41287;47.554;7.844;2023-03-01T04:02:40;1.70;;;1.30;;
55417;SDS011;41287;47.554;7.844;2023-03-01T04:05:09;1.38;;;1.17;;
55417;SDS011;41287;47.554;7.844;2023-03-01T04:07:36;2.13;;;1.60;;
55417;SDS011;41287;47.554;7.844;2023-03-01T04:10:03;1.80;;;1.50;;
55417;SDS011;41287;47.554;7.844;2023-03-01T04:12:32;1.58;;;1.20;;
55417;SDS011;41287;47.554;7.844;2023-03-01T04:14:59;1.67;;;1.30;;
55417;SDS011;41287;47.554;7.844;2023-03-01T04:17:26;1.40;;;1.30;;
55417;SDS011;41287;47.554;7.844;2023-03-01T04:19:52;1.63;;;1.38;;
55417;SDS011;41287;47.554;7.844;2023-03-01T04:22:18;1.58;;;1.30;;
55417;SDS011;41287;47.554;7.844;2023-03-01T04:24:44;1.77;;;1.20;;
55417;SDS011;41287;47.554;7.844;2023-03-01T04:27:10;2.35;;;1.60;;
55417;SDS011;41287;47.554;7.844;2023-03-01T04:29:35;1.80;;;1.38;;
55417;SDS011;41287;47.554;7.844;2023-03-01T04:32:01;1.55;;;1.33;;
55417;SDS011;41287;47.554;7.844;2023-03-01T04:34:27;1.83;;;1.38;;
55417;SDS011;41287;47.554;7.844;2023-03-01T04:36:53;1.88;;;1.30;;
55417;SDS011;41287;47.554;7.844;2023-03-01T04:39:18;2.00;;;1.15;;
55417;SDS011;41287;47.554;7.844;2023-03-01T04:41:47;2.08;;;1.50;;
55417;SDS011;41287;47.554;7.844;2023-03-01T04:44:13;2.17;;;1.55;;
55417;SDS011;41287;47.554;7.844;2023-03-01T04:46:38;1.25;;;1.15;;
55417;SDS011;41287;47.554;7.844;2023-03-01T04:49:05;1.45;;;1.35;;
55417;SDS011;41287;47.554;7.844;2023-03-01T04:51:31;2.10;;;1.55;;
55417;SDS011;41287;47.554;7.844;2023-03-01T04:53:57;1.58;;;1.20;;
55417;SDS011;41287;47.554;7.844;2023-03-01T04:56:23;1.55;;;1.38;;
55417;SDS011;41287;47.554;7.844;2023-03-01T04:58:48;1.40;;;1.10;;
55417;SDS011;41287;47.554;7.844;2023-03-01T05:01:17;1.77;;;1.40;;
55417;SDS011;41287;47.554;7.844;2023-03-01T05:03:45;1.50;;;1.30;;
55417;SDS011;41287;47.554;7.844;2023-03-01T05:06:14;1.60;;;1.30;;
55417;SDS011;41287;47.554;7.844;2023-03-01T05:08:41;1.90;;;1.38;;
55417;SDS011;41287;47.554;7.844;2023-03-01T05:11:08;1.15;;;1.02;;
55417;SDS011;41287;47.554;7.844;2023-03-01T05:13:34;2.25;;;1.42;;
55417;SDS011;41287;47.554;7.844;2023-03-01T05:16:02;1.70;;;1.48;;
55417;SDS011;41287;47.554;7.844;2023-03-01T05:18:29;1.52;;;1.15;;
55417;SDS011;41287;47.554;7.844;2023-03-01T05:21:01;2.42;;;1.40;;
55417;SDS011;41287;47.554;7.844;2023-03-01T05:23:30;1.77;;;1.30;;
55417;SDS011;41287;47.554;7.844;2023-03-01T05:25:59;1.85;;;1.30;;
55417;SDS011;41287;47.554;7.844;2023-03-01T05:28:29;1.67;;;1.33;;
55417;SDS011;41287;47.554;7.844;2023-03-01T05:30:55;1.60;;;1.30;;
55417;SDS011;41287;47.554;7.844;2023-03-01T05:33:21;2.20;;;1.40;;
55417;SDS011;41287;47.554;7.844;2023-03-01T05:35:48;2.58;;;1.80;;
55417;SDS011;41287;47.554;7.844;2023-03-01T05:38:14;1.90;;;1.38;;
55417;SDS011;41287;47.554;7.844;2023-03-01T05:40:41;1.77;;;1.38;;
55417;SDS011;41287;47.554;7.844;2023-03-01T05:43:10;1.98;;;1.20;;
55417;SDS011;41287;47.554;7.844;2023-03-01T05:45:36;1.83;;;1.35;;
55417;SDS011;41287;47.554;7.844;2023-03-01T05:48:03;1.60;;;1.20;;
55417;SDS011;41287;47.554;7.844;2023-03-01T05:50:34;1.70;;;1.25;;
55417;SDS011;41287;47.554;7.844;2023-03-01T05:53:02;1.33;;;1.20;;
55417;SDS011;41287;47.554;7.844;2023-03-01T05:55:31;1.35;;;1.25;;
55417;SDS011;41287;47.554;7.844;2023-03-01T05:58:00;1.50;;;1.40;;
55417;SDS011;41287;47.554;7.844;2023-03-01T06:00:28;1.45;;;1.10;;
55417;SDS011;41287;47.554;7.844;2023-03-01T06:02:55;1.80;;;1.40;;
55417;SDS011;41287;47.554;7.844;2023-03-01T06:05:21;1.73;;;1.38;;
55417;SDS011;41287;47.554;7.844;2023-03-01T06:07:49;1.50;;;1.30;;
55417;SDS011;41287;47.554;7.844;2023-03-01T06:10:15;1.77;;;1.30;;
55417;SDS011;41287;47.554;7.844;2023-03-01T06:12:41;1.52;;;1.33;;
55417;SDS011;41287;47.554;7.844;2023-03-01T06:15:10;1.80;;;1.30;;
55417;SDS011;41287;47.554;7.844;2023-03-01T06:17:38;1.50;;;1.35;;
55417;SDS011;41287;47.554;7.844;2023-03-01T06:20:06;1.70;;;1.30;;
55417;SDS011;41287;47.554;7.844;2023-03-01T06:22:37;1.50;;;1.30;;
55417;SDS011;41287;47.554;7.844;2023-03-01T06:25:05;1.80;;;1.40;;
55417;SDS011;41287;47.554;7.844;2023-03-01T06:27:31;1.48;;;1.30;;
55417;SDS011;41287;47.554;7.844;2023-03-01T06:29:57;1.42;;;1.20;;
55417;SDS011;41287;47.554;7.844;2023-03-01T06:32:22;1.48;;;1.30;;
55417;SDS011;41287;47.554;7.844;2023-03-01T06:34:48;1.80;;;1.48;;
55417;SDS011;41287;47.554;7.844;2023-03-01T06:37:14;1.45;;;1.35;;
55417;SDS011;41287;47.554;7.844;2023-03-01T06:39:39;1.92;;;1.17;;
55417;SDS011;41287;47.554;7.844;2023-03-01T06:42:08;1.48;;;1.05;;
55417;SDS011;41287;47.554;7.844;2023-03-01T06:44:35;1.30;;;1.20;;
55417;SDS011;41287;47.554;7.844;2023-03-01T06:47:00;1.77;;;1.27;;
55417;SDS011;41287;47.554;7.844;2023-03-01T06:49:26;1.90;;;1.35;;
55417;SDS011;41287;47.554;7.844;2023-03-01T06:51:52;1.40;;;1.23;;
55417;SDS011;41287;47.554;7.844;2023-03-01T06:54:18;1.88;;;1.42;;
55417;SDS011;41287;47.554;7.844;2023-03-01T06:56:46;1.38;;;1.20;;
55417;SDS011;41287;47.554;7.844;2023-03-01T06:59:12;1.42;;;1.20;;
55417;SDS011;41287;47.554;7.844;2023-03-01T07:01:38;1.63;;;1.40;;
55417;SDS011;41287;47.554;7.844;2023-03-01T07:04:04;1.73;;;1.42;;
55417;SDS011;41287;47.554;7.844;2023-03-01T07:06:31;1.40;;;1.30;;
55417;SDS011;41287;47.554;7.844;2023-03-01T07:08:58;1.33;;;1.23;;
55417;SDS011;41287;47.554;7.844;2023-03-01T07:11:24;1.42;;;1.20;;
55417;SDS011;41287;47.554;7.844;2023-03-01T07:13:49;1.65;;;1.38;;
55417;SDS011;41287;47.554;7.844;2023-03-01T07:16:16;1.83;;;1.23;;
55417;SDS011;41287;47.554;7.844;2023-03-01T07:18:42;1.75;;;1.33;;
55417;SDS011;41287;47.554;7.844;2023-03-01T07:21:08;1.35;;;1.15;;
55417;SDS011;41287;47.554;7.844;2023-03-01T07:23:36;1.30;;;1.20;;
55417;SDS011;41287;47.554;7.844;2023-03-01T07:26:02;1.65;;;1.30;;
55417;SDS011;41287;47.554;7.844;2023-03-01T07:28:27;1.60;;;1.38;;
55417;SDS011;41287;47.554;7.844;2023-03-01T07:30:53;2.25;;;1.70;;
55417;SDS011;41287;47.554;7.844;2023-03-01T07:33:19;3.90;;;2.60;;
55417;SDS011;41287;47.554;7.844;2023-03-01T07:35:44;5.70;;;3.78;;
55417;SDS011;41287;47.554;7.844;2023-03-01T07:38:10;5.35;;;3.90;;
55417;SDS011;41287;47.554;7.844;2023-03-01T07:40:35;5.90;;;4.07;;
55417;SDS011;41287;47.554;7.844;2023-03-01T07:43:03;5.65;;;3.90;;
55417;SDS011;41287;47.554;7.844;2023-03-01T07:45:28;6.70;;;4.30;;
55417;SDS011;41287;47.554;7.844;2023-03-01T07:47:54;6.22;;;4.05;;
55417;SDS011;41287;47.554;7.844;2023-03-01T07:50:20;6.93;;;5.00;;
55417;SDS011;41287;47.554;7.844;2023-03-01T07:52:47;7.25;;;4.90;;
55417;SDS011;41287;47.554;7.844;2023-03-01T07:55:14;7.63;;;5.20;;
55417;SDS011;41287;47.554;7.844;2023-03-01T07:57:40;7.43;;;4.65;;
55417;SDS011;41287;47.554;7.844;2023-03-01T08:00:09;6.60;;;5.30;;
55417;SDS011;41287;47.554;7.844;2023-03-01T08:02:36;6.38;;;4.70;;
55417;SDS011;41287;47.554;7.844;2023-03-01T08:05:01;7.60;;;5.05;;
55417;SDS011;41287;47.554;7.844;2023-03-01T08:07:30;6.22;;;4.50;;
55417;SDS011;41287;47.554;7.844;2023-03-01T08:09:55;8.77;;;5.28;;
55417;SDS011;41287;47.554;7.844;2023-03-01T08:12:21;7.43;;;4.32;;
55417;SDS011;41287;47.554;7.844;2023-03-01T08:14:48;7.57;;;4.60;;
55417;SDS011;41287;47.554;7.844;2023-03-01T08:17:15;7.30;;;4.40;;
55417;SDS011;41287;47.554;7.844;2023-03-01T08:19:42;7.72;;;4.57;;
55417;SDS011;41287;47.554;7.844;2023-03-01T08:22:07;6.05;;;4.00;;
55417;SDS011;41287;47.554;7.844;2023-03-01T08:24:35;5.85;;;3.80;;
55417;SDS011;41287;47.554;7.844;2023-03-01T08:27:00;6.05;;;4.15;;
55417;SDS011;41287;47.554;7.844;2023-03-01T08:29:27;6.47;;;4.30;;
55417;SDS011;41287;47.554;7.844;2023-03-01T08:31:53;6.13;;;4.18;;
55417;SDS011;41287;47.554;7.844;2023-03-01T08:34:19;6.05;;;4.00;;
55417;SDS011;41287;47.554;7.844;2023-03-01T08:36:45;5.35;;;3.92;;
55417;SDS011;41287;47.554;7.844;2023-03-01T08:39:15;7.22;;;4.60;;
55417;SDS011;41287;47.554;7.844;2023-03-01T08:41:43;10.70;;;4.20;;
55417;SDS011;41287;47.554;7.844;2023-03-01T08:44:09;5.70;;;3.97;;
55417;SDS011;41287;47.554;7.844;2023-03-01T08:46:36;5.35;;;3.67;;
55417;SDS011;41287;47.554;7.844;2023-03-01T08:49:06;5.50;;;3.63;;
55417;SDS011;41287;47.554;7.844;2023-03-01T08:51:36;5.90;;;3.65;;
55417;SDS011;41287;47.554;7.844;2023-03-01T08:54:02;5.88;;;3.65;;
55417;SDS011;41287;47.554;7.844;2023-03-01T08:56:32;6.80;;;3.70;;
55417;SDS011;41287;47.554;7.844;2023-03-01T08:58:57;4.93;;;3.28;;
55417;SDS011;41287;47.554;7.844;2023-03-01T09:01:23;6.25;;;3.75;;
55417;SDS011;41287;47.554;7.844;2023-03-01T09:03:48;5.07;;;3.60;;
55417;SDS011;41287;47.554;7.844;2023-03-01T09:06:17;5.03;;;3.50;;
55417;SDS011;41287;47.554;7.844;2023-03-01T09:08:44;5.68;;;4.07;;
55417;SDS011;41287;47.554;7.844;2023-03-01T09:11:12;5.32;;;3.28;;
55417;SDS011;41287;47.554;7.844;2023-03-01T09:13:40;5.25;;;3.08;;
55417;SDS011;41287;47.554;7.844;2023-03-01T09:16:08;4.90;;;3.42;;
55417;SDS011;41287;47.554;7.844;2023-03-01T09:18:35;4.93;;;3.28;;
55417;SDS011;41287;47.554;7.844;2023-03-01T09:21:08;4.30;;;3.35;;
55417;SDS011;41287;47.554;7.844;2023-03-01T09:23:37;5.93;;;3.47;;
55417;SDS011;41287;47.554;7.844;2023-03-01T09:26:04;4.57;;;3.30;;
55417;SDS011;41287;47.554;7.844;2023-03-01T09:28:30;4.60;;;3.13;;
55417;SDS011;41287;47.554;7.844;2023-03-01T09:30:59;4.47;;;3.13;;
55417;SDS011;41287;47.554;7.844;2023-03-01T09:33:26;3.95;;;2.67;;
55417;SDS011;41287;47.554;7.844;2023-03-01T09:35:58;4.25;;;3.10;;
55417;SDS011;41287;47.554;7.844;2023-03-01T09:38:25;5.25;;;3.20;;
55417;SDS011;41287;47.554;7.844;2023-03-01T09:40:52;4.38;;;3.10;;
55417;SDS011;41287;47.554;7.844;2023-03-01T09:43:40;3.92;;;2.70;;
55417;SDS011;41287;47.554;7.844;2023-03-01T09:46:11;5.97;;;3.30;;
55417;SDS011;41287;47.554;7.844;2023-03-01T09:48:42;5.53;;;3.30;;
55417;SDS011;41287;47.554;7.844;2023-03-01T09:51:12;4.18;;;2.88;;
55417;SDS011;41287;47.554;7.844;2023-03-01T09:53:42;4.93;;;2.65;;
55417;SDS011;41287;47.554;7.844;2023-03-01T09:56:14;4.45;;;2.78;;
55417;SDS011;41287;47.554;7.844;2023-03-01T09:58:57;4.20;;;2.88;;
55417;SDS011;41287;47.554;7.844;2023-03-01T10:01:38;5.93;;;3.13;;
55417;SDS011;41287;47.554;7.844;2023-03-01T10:04:24;4.18;;;2.95;;
55417;SDS011;41287;47.554;7.844;2023-03-01T10:09:41;4.05;;;2.97;;
55417;SDS011;41287;47.554;7.844;2023-03-01T10:12:15;5.10;;;3.15;;
55417;SDS011;41287;47.554;7.844;2023-03-01T10:22:41;4.03;;;2.22;;
55417;SDS011;41287;47.554;7.844;2023-03-01T10:25:08;3.58;;;2.63;;
55417;SDS011;41287;47.554;7.844;2023-03-01T10:27:46;3.60;;;2.78;;
55417;SDS011;41287;47.554;7.844;2023-03-01T10:30:21;4.18;;;2.78;;
55417;SDS011;41287;47.554;7.844;2023-03-01T10:32:54;3.58;;;2.40;;
55417;SDS011;41287;47.554;7.844;2023-03-01T10:35:23;3.63;;;2.63;;
55417;SDS011;41287;47.554;7.844;2023-03-01T10:38:04;4.70;;;2.95;;
55417;SDS011;41287;47.554;7.844;2023-03-01T10:40:41;3.22;;;2.30;;
55417;SDS011;41287;47.554;7.844;2023-03-01T10:43:26;3.60;;;2.78;;
55417;SDS011;41287;47.554;7.844;2023-03-01T10:45:57;4.15;;;2.70;;
55417;SDS011;41287;47.554;7.844;2023-03-01T10:48:24;3.00;;;2.30;;
55417;SDS011;41287;47.554;7.844;2023-03-01T10:55:59;3.78;;;2.58;;
55417;SDS011;41287;47.554;7.844;2023-03-01T10:58:28;4.28;;;2.90;;
55417;SDS011;41287;47.554;7.844;2023-03-01T11:00:59;3.13;;;2.38;;
55417;SDS011;41287;47.554;7.844;2023-03-01T11:05:58;3.55;;;2.88;;
55417;SDS011;41287;47.554;7.844;2023-03-01T11:11:08;4.00;;;2.67;;
55417;SDS011;41287;47.554;7.844;2023-03-01T11:13:47;2.65;;;2.17;;
55417;SDS011;41287;47.554;7.844;2023-03-01T11:16:16;3.58;;;2.50;;
55417;SDS011;41287;47.554;7.844;2023-03-01T11:19:34;3.63;;;2.53;;
55417;SDS011;41287;47.554;7.844;2023-03-01T11:21:39;2.70;;;2.20;;
55417;SDS011;41287;47.554;7.844;2023-03-01T11:24:09;3.38;;;2.45;;
55417;SDS011;41287;47.554;7.844;2023-03-01T11:26:39;2.95;;;2.13;;
55417;SDS011;41287;47.554;7.844;2023-03-01T11:29:12;3.60;;;2.47;;
55417;SDS011;41287;47.554;7.844;2023-03-01T11:31:42;3.83;;;2.63;;
55417;SDS011;41287;47.554;7.844;2023-03-01T11:34:13;4.57;;;2.33;;
55417;SDS011;41287;47.554;7.844;2023-03-01T11:36:49;3.40;;;2.58;;
55417;SDS011;41287;47.554;7.844;2023-03-01T11:41:58;3.50;;;2.58;;
55417;SDS011;41287;47.554;7.844;2023-03-01T11:44:30;3.75;;;2.33;;
55417;SDS011;41287;47.554;7.844;2023-03-01T11:47:15;3.78;;;2.72;;
55417;SDS011;41287;47.554;7.844;2023-03-01T11:50:28;4.20;;;2.67;;
55417;SDS011;41287;47.554;7.844;2023-03-01T12:06:12;3.20;;;2.25;;
55417;SDS011;41287;47.554;7.844;2023-03-01T12:12:05;3.40;;;2.40;;
55417;SDS011;41287;47.554;7.844;2023-03-01T12:20:28;3.42;;;2.13;;
55417;SDS011;41287;47.554;7.844;2023-03-01T12:26:06;3.20;;;2.40;;
55417;SDS011;41287;47.554;7.844;2023-03-01T12:37:36;2.90;;;2.30;;
55417;SDS011;41287;47.554;7.844;2023-03-01T12:40:13;3.47;;;2.63;;
55417;SDS011;41287;47.554;7.844;2023-03-01T12:45:43;3.13;;;2.20;;
55417;SDS011;41287;47.554;7.844;2023-03-01T12:51:02;2.63;;;1.95;;
55417;SDS011;41287;47.554;7.844;2023-03-01T12:53:36;3.75;;;2.55;;
55417;SDS011;41287;47.554;7.844;2023-03-01T12:56:05;4.18;;;2.55;;
55417;SDS011;41287;47.554;7.844;2023-03-01T12:58:51;2.10;;;1.88;;
55417;SDS011;41287;47.554;7.844;2023-03-01T13:01:28;3.03;;;2.13;;
55417;SDS011;41287;47.554;7.844;2023-03-01T13:06:44;2.90;;;2.13;;
55417;SDS011;41287;47.554;7.844;2023-03-01T13:12:03;3.60;;;2.20;;
55417;SDS011;41287;47.554;7.844;2023-03-01T13:16:56;3.20;;;2.08;;
55417;SDS011;41287;47.554;7.844;2023-03-01T13:19:22;3.13;;;2.10;;
55417;SDS011;41287;47.554;7.844;2023-03-01T13:21:52;2.88;;;2.17;;
55417;SDS011;41287;47.554;7.844;2023-03-01T13:32:22;2.83;;;2.13;;
55417;SDS011;41287;47.554;7.844;2023-03-01T13:34:49;2.70;;;2.10;;
55417;SDS011;41287;47.554;7.844;2023-03-01T13:37:29;3.80;;;2.40;;
55417;SDS011;41287;47.554;7.844;2023-03-01T13:42:46;3.00;;;2.10;;
55417;SDS011;41287;47.554;7.844;2023-03-01T13:45:32;2.50;;;2.00;;
55417;SDS011;41287;47.554;7.844;2023-03-01T13:48:03;3.33;;;2.10;;
55417;SDS011;41287;47.554;7.844;2023-03-01T13:50:36;3.53;;;2.55;;
55417;SDS011;41287;47.554;7.844;2023-03-01T13:53:10;3.13;;;2.20;;
55417;SDS011;41287;47.554;7.844;2023-03-01T13:55:43;2.55;;;2.03;;
55417;SDS011;41287;47.554;7.844;2023-03-01T13:58:30;2.95;;;2.15;;
55417;SDS011;41287;47.554;7.844;2023-03-01T14:01:04;2.65;;;2.10;;
55417;SDS011;41287;47.554;7.844;2023-03-01T14:03:33;3.17;;;2.25;;
55417;SDS011;41287;47.554;7.844;2023-03-01T14:06:07;2.30;;;1.80;;
55417;SDS011;41287;47.554;7.844;2023-03-01T14:08:43;3.80;;;2.70;;
55417;SDS011;41287;47.554;7.844;2023-03-01T14:11:33;3.10;;;2.25;;
55417;SDS011;41287;47.554;7.844;2023-03-01T14:16:59;2.40;;;1.90;;
55417;SDS011;41287;47.554;7.844;2023-03-01T14:19:46;2.28;;;1.95;;
55417;SDS011;41287;47.554;7.844;2023-03-01T14:24:59;3.05;;;2.20;;
55417;SDS011;41287;47.554;7.844;2023-03-01T14:27:29;2.42;;;2.10;;
55417;SDS011;41287;47.554;7.844;2023-03-01T14:30:01;2.72;;;2.13;;
55417;SDS011;41287;47.554;7.844;2023-03-01T14:32:37;3.17;;;2.20;;
55417;SDS011;41287;47.554;7.844;2023-03-01T14:35:03;2.97;;;2.10;;
55417;SDS011;41287;47.554;7.844;2023-03-01T14:37:43;3.28;;;2.10;;
55417;SDS011;41287;47.554;7.844;2023-03-01T14:40:19;3.35;;;2.45;;
55417;SDS011;41287;47.554;7.844;2023-03-01T14:45:34;2.50;;;1.90;;
55417;SDS011;41287;47.554;7.844;2023-03-01T14:48:03;2.15;;;1.73;;
55417;SDS011;41287;47.554;7.844;2023-03-01T14:50:31;2.85;;;2.10;;
55417;SDS011;41287;47.554;7.844;2023-03-01T14:53:01;2.47;;;1.80;;
55417;SDS011;41287;47.554;7.844;2023-03-01T14:55:29;2.63;;;2.03;;
55417;SDS011;41287;47.554;7.844;2023-03-01T14:58:05;2.58;;;2.00;;
55417;SDS011;41287;47.554;7.844;2023-03-01T15:00:34;2.75;;;2.20;;
55417;SDS011;41287;47.554;7.844;2023-03-01T15:03:08;2.55;;;2.10;;
55417;SDS011;41287;47.554;7.844;2023-03-01T15:05:39;2.80;;;2.28;;
55417;SDS011;41287;47.554;7.844;2023-03-01T15:08:06;2.65;;;2.08;;
55417;SDS011;41287;47.554;7.844;2023-03-01T15:10:38;3.75;;;2.40;;
55417;SDS011;41287;47.554;7.844;2023-03-01T15:13:11;3.60;;;2.30;;
55417;SDS011;41287;47.554;7.844;2023-03-01T15:15:39;2.70;;;2.20;;
55417;SDS011;41287;47.554;7.844;2023-03-01T15:18:21;2.38;;;1.90;;
55417;SDS011;41287;47.554;7.844;2023-03-01T15:20:50;2.58;;;2.03;;
55417;SDS011;41287;47.554;7.844;2023-03-01T15:23:21;3.08;;;2.22;;
55417;SDS011;41287;47.554;7.844;2023-03-01T15:25:52;2.17;;;1.80;;
55417;SDS011;41287;47.554;7.844;2023-03-01T15:28:29;2.55;;;2.00;;
55417;SDS011;41287;47.554;7.844;2023-03-01T15:31:01;2.72;;;2.00;;
55417;SDS011;41287;47.554;7.844;2023-03-01T15:33:46;3.10;;;2.28;;
55417;SDS011;41287;47.554;7.844;2023-03-01T15:38:58;2.40;;;1.95;;
55417;SDS011;41287;47.554;7.844;2023-03-01T15:41:32;3.13;;;2.13;;
55417;SDS011;41287;47.554;7.844;2023-03-01T15:44:16;2.28;;;1.80;;
55417;SDS011;41287;47.554;7.844;2023-03-01T15:46:46;3.33;;;2.22;;
55417;SDS011;41287;47.554;7.844;2023-03-01T15:51:57;2.47;;;1.90;;
55417;SDS011;41287;47.554;7.844;2023-03-01T15:54:24;2.72;;;2.17;;
55417;SDS011;41287;47.554;7.844;2023-03-01T15:56:51;3.55;;;2.70;;
55417;SDS011;41287;47.554;7.844;2023-03-01T15:59:19;5.00;;;3.30;;
55417;SDS011;41287;47.554;7.844;2023-03-01T16:01:44;4.35;;;3.40;;
55417;SDS011;41287;47.554;7.844;2023-03-01T16:04:14;5.65;;;4.20;;
55417;SDS011;41287;47.554;7.844;2023-03-01T16:06:47;6.97;;;4.82;;
55417;SDS011;41287;47.554;7.844;2023-03-01T16:09:18;7.90;;;5.35;;
55417;SDS011;41287;47.554;7.844;2023-03-01T16:11:51;8.07;;;5.60;;
55417;SDS011;41287;47.554;7.844;2023-03-01T16:14:18;7.05;;;5.28;;
55417;SDS011;41287;47.554;7.844;2023-03-01T16:16:44;7.80;;;5.40;;
55417;SDS011;41287;47.554;7.844;2023-03-01T16:19:10;9.70;;;6.68;;
55417;SDS011;41287;47.554;7.844;2023-03-01T16:21:36;10.90;;;7.18;;
55417;SDS011;41287;47.554;7.844;2023-03-01T16:24:02;10.15;;;7.18;;
55417;SDS011;41287;47.554;7.844;2023-03-01T16:26:31;10.60;;;7.18;;
55417;SDS011;41287;47.554;7.844;2023-03-01T16:28:57;11.75;;;7.68;;
55417;SDS011;41287;47.554;7.844;2023-03-01T16:31:23;11.40;;;7.30;;
55417;SDS011;41287;47.554;7.844;2023-03-01T16:33:52;12.27;;;8.32;;
55417;SDS011;41287;47.554;7.844;2023-03-01T16:36:19;11.82;;;7.72;;
55417;SDS011;41287;47.554;7.844;2023-03-01T16:38:45;10.77;;;7.72;;
55417;SDS011;41287;47.554;7.844;2023-03-01T16:41:11;12.10;;;8.55;;
55417;SDS011;41287;47.554;7.844;2023-03-01T16:43:38;12.65;;;8.07;;
55417;SDS011;41287;47.554;7.844;2023-03-01T16:46:14;12.18;;;8.15;;
55417;SDS011;41287;47.554;7.844;2023-03-01T16:48:45;10.57;;;7.57;;